createdAt,value
2023-02-11T09:59:40.306Z,92.74
2023-02-11T10:02:38.088Z,93.15
2023-02-11T10:05:20.058Z,92.73
2023-02-11T10:08:17.218Z,92.96
2023-02-11T10:11:01.537Z,93.37
2023-02-11T10:14:07.731Z,93.29
2023-02-11T10:17:00.701Z,93.24
2023-02-11T10:19:54.945Z,93.81
2023-02-11T10:22:30.336Z,93.64
2023-02-11T10:25:00.751Z,93.84
2023-02-11T10:27:35.887Z,93.69
2023-02-11T10:30:35.008Z,94.27
2023-02-11T10:33:14.065Z,94.31
2023-02-11T10:35:42.604Z,94.41
2023-02-11T10:38:11.951Z,94.55
2023-02-11T10:40:38.746Z,95.02
2023-02-11T10:43:10.617Z,95.04
2023-02-11T10:45:50.752Z,95.63
2023-02-11T10:48:49.663Z,95.32
2023-02-11T10:51:23.271Z,95.41
2023-02-11T10:54:00.866Z,95.22
2023-02-11T10:56:28.742Z,95.20
2023-02-11T10:59:01.694Z,95.33
2023-02-11T11:01:50.164Z,95.89
2023-02-11T11:04:45.462Z,96.13
2023-02-11T11:07:30.119Z,96.50
2023-02-11T11:09:59.795Z,96.31
2023-02-11T11:12:26.430Z,96.51
2023-02-11T11:15:16.628Z,96.49
2023-02-11T11:17:43.336Z,96.79
2023-02-11T11:20:35.482Z,96.83
2023-02-11T11:23:13.701Z,96.93
2023-02-11T11:25:44.107Z,97.18
2023-02-11T11:28:24.420Z,96.92
2023-02-11T11:30:54.130Z,96.90
2023-02-11T11:33:26.130Z,97.09
2023-02-11T11:36:11.515Z,97.05
2023-02-11T11:38:48.406Z,97.29
2023-02-11T11:41:24.171Z,97.58
2023-02-11T11:43:56.723Z,97.55
2023-02-11T11:46:41.752Z,97.48
2023-02-11T11:49:22.086Z,97.21
2023-02-11T11:52:10.288Z,97.49
2023-02-11T11:54:37.509Z,97.55
2023-02-11T11:57:14.745Z,97.56
2023-02-11T11:59:44.360Z,97.59
2023-02-11T12:02:42.145Z,97.67
2023-02-11T12:05:26.883Z,97.67
2023-02-11T12:08:33.372Z,97.03
2023-02-11T12:11:28.437Z,97.10
2023-02-11T12:14:19.021Z,96.92
2023-02-11T12:16:54.540Z,97.09
2023-02-11T12:19:45.566Z,96.90
2023-02-11T12:22:44.202Z,96.47
2023-02-11T12:25:23.129Z,96.57
2023-02-11T12:28:26.812Z,96.33
2023-02-11T12:31:23.106Z,96.25
2023-02-11T12:34:00.842Z,96.12
2023-02-11T12:36:30.450Z,96.12
2023-02-11T12:39:27.097Z,96.06
2023-02-11T12:42:35.953Z,96.07
2023-02-11T12:45:22.445Z,95.87
2023-02-11T12:48:05.624Z,95.95
2023-02-11T12:50:55.171Z,95.72
2023-02-11T12:53:53.891Z,96.12
2023-02-11T12:56:40.458Z,95.82
2023-02-11T12:59:15.344Z,95.83
2023-02-11T13:01:47.329Z,95.74
2023-02-11T13:04:23.922Z,95.74
2023-02-11T13:07:02.572Z,95.82
2023-02-11T13:10:13.346Z,96.09
2023-02-11T13:13:03.524Z,95.90
2023-02-11T13:15:31.717Z,95.89
2023-02-11T13:18:30.000Z,95.66
2023-02-11T13:21:17.945Z,95.93
2023-02-11T13:23:57.991Z,95.98
2023-02-11T13:26:45.722Z,96.07
2023-02-11T13:29:26.285Z,96.29
2023-02-11T13:31:54.979Z,96.56
2023-02-11T13:34:26.977Z,96.41
2023-02-11T13:37:02.838Z,96.57
2023-02-11T13:39:29.592Z,96.73
2023-02-11T13:42:06.356Z,96.94
2023-02-11T13:44:34.884Z,97.01
2023-02-11T13:47:05.059Z,96.54
2023-02-11T13:49:41.482Z,96.43
2023-02-11T13:52:32.388Z,96.58
2023-02-11T13:55:22.635Z,96.62
2023-02-11T13:58:12.131Z,96.72
2023-02-11T14:00:38.712Z,96.86
2023-02-11T14:03:32.618Z,96.80
2023-02-11T14:06:27.172Z,96.78
2023-02-11T14:09:09.179Z,96.77
2023-02-11T14:11:46.300Z,97.14
2023-02-11T14:14:31.877Z,96.91
2023-02-11T14:16:58.690Z,97.28
2023-02-11T14:19:43.884Z,97.47
2023-02-11T14:22:10.534Z,97.67
2023-02-11T14:24:37.103Z,97.73
2023-02-11T14:27:25.920Z,97.97
2023-02-11T14:30:10.523Z,98.48
2023-02-11T14:33:08.451Z,98.41
2023-02-11T14:35:40.976Z,98.32
2023-02-11T14:38:26.982Z,98.75
2023-02-11T14:41:18.594Z,98.54
2023-02-11T14:43:53.252Z,98.93
2023-02-11T14:46:22.400Z,98.78
2023-02-11T14:48:52.324Z,98.42
2023-02-11T14:51:27.677Z,98.73
2023-02-11T14:54:02.031Z,98.82
2023-02-11T14:56:31.327Z,98.82
2023-02-11T14:58:58.405Z,98.47
2023-02-11T15:01:41.005Z,98.56
2023-02-11T15:04:25.336Z,98.76
2023-02-11T15:06:55.377Z,98.96
2023-02-11T15:09:34.270Z,98.61
2023-02-11T15:12:01.330Z,98.48
2023-02-11T15:14:37.368Z,98.33
2023-02-11T15:17:07.749Z,98.67
2023-02-11T15:19:38.545Z,98.77
2023-02-11T15:22:27.061Z,98.74
2023-02-11T15:25:01.137Z,98.78
2023-02-11T15:27:27.819Z,98.52
2023-02-11T15:29:54.492Z,98.78
2023-02-11T15:32:34.846Z,98.66
2023-02-11T15:35:01.498Z,98.86
2023-02-11T15:37:30.021Z,98.62
2023-02-11T15:40:13.215Z,98.69
2023-02-11T15:42:52.122Z,98.88
2023-02-11T15:45:31.420Z,98.89
2023-02-11T15:48:24.744Z,98.75
2023-02-11T15:50:55.587Z,98.92
2023-02-11T15:53:33.404Z,98.96
2023-02-11T15:56:16.554Z,99.12
2023-02-11T15:58:45.982Z,99.38
2023-02-11T16:01:14.197Z,99.29
2023-02-11T16:03:44.073Z,98.92
2023-02-11T16:06:17.955Z,99.25
2023-02-11T16:09:01.416Z,99.22
2023-02-11T16:11:55.556Z,99.27
2023-02-11T16:14:29.618Z,99.25
2023-02-11T16:16:56.129Z,99.34
2023-02-11T16:19:34.053Z,99.06
2023-02-11T16:22:10.108Z,98.97
2023-02-11T16:24:38.922Z,99.08
2023-02-11T16:27:18.380Z,99.21
2023-02-11T16:29:55.113Z,99.12
2023-02-11T16:32:26.748Z,99.05
2023-02-11T16:34:55.360Z,99.07
2023-02-11T16:37:21.978Z,99.23
2023-02-11T16:39:55.101Z,99.10
2023-02-11T16:42:21.739Z,99.02
2023-02-11T16:44:48.347Z,98.95
2023-02-11T16:47:26.688Z,98.71
2023-02-11T16:49:54.302Z,98.88
2023-02-11T16:52:21.913Z,99.03
2023-02-11T16:54:48.863Z,98.47
2023-02-11T16:57:16.600Z,98.41
2023-02-11T16:59:46.698Z,98.42
2023-02-11T17:02:23.958Z,98.24
2023-02-11T17:04:52.871Z,98.69
2023-02-11T17:07:31.923Z,98.62
2023-02-11T17:09:59.300Z,98.65
2023-02-11T17:12:28.631Z,98.62
2023-02-11T17:14:55.382Z,98.62
2023-02-11T17:17:25.076Z,98.60
2023-02-11T17:19:52.133Z,98.68
2023-02-11T17:22:22.016Z,98.77
2023-02-11T17:24:48.928Z,98.58
2023-02-11T17:27:15.588Z,98.76
2023-02-11T17:29:42.242Z,98.88
2023-02-11T17:32:08.899Z,98.83
2023-02-11T17:34:35.763Z,98.75
2023-02-11T17:37:08.995Z,98.85
2023-02-11T17:39:37.014Z,98.71
2023-02-11T17:42:04.360Z,98.61
2023-02-11T17:44:30.992Z,98.45
2023-02-11T17:46:58.788Z,98.67
2023-02-11T17:49:25.593Z,98.46
2023-02-11T17:51:52.297Z,98.62
2023-02-11T17:54:22.708Z,98.38
2023-02-11T17:56:51.056Z,98.21
2023-02-11T17:59:17.918Z,98.28
2023-02-11T18:01:44.598Z,98.47
2023-02-11T18:04:15.392Z,98.44
2023-02-11T18:06:42.094Z,98.24
2023-02-11T18:09:12.210Z,98.48
2023-02-11T18:11:40.168Z,98.27
2023-02-11T18:14:08.546Z,97.91
2023-02-11T18:16:39.032Z,98.05
2023-02-11T18:19:07.839Z,98.30
2023-02-11T18:21:35.055Z,98.04
2023-02-11T18:24:06.481Z,98.08
2023-02-11T18:26:37.210Z,98.14
2023-02-11T18:29:06.320Z,98.03
2023-02-11T18:31:35.430Z,97.77
2023-02-11T18:34:05.630Z,97.39
2023-02-11T18:36:38.088Z,97.65
2023-02-11T18:39:05.987Z,97.68
2023-02-11T18:41:32.676Z,97.87
2023-02-11T18:44:02.817Z,97.59
2023-02-11T18:46:29.948Z,97.79
2023-02-11T18:48:56.676Z,97.69
2023-02-11T18:51:23.743Z,97.62
2023-02-11T18:53:50.571Z,97.43
2023-02-11T18:56:23.768Z,97.55
2023-02-11T18:58:51.493Z,97.63
2023-02-11T19:01:29.498Z,97.18
2023-02-11T19:03:58.107Z,97.29
2023-02-11T19:06:27.367Z,97.39
2023-02-11T19:08:59.196Z,97.69
2023-02-11T19:11:45.437Z,97.53
2023-02-11T19:14:14.237Z,97.65
2023-02-11T19:16:42.616Z,97.97
2023-02-11T19:19:09.669Z,98.08
2023-02-11T19:21:36.933Z,98.00
2023-02-11T19:24:07.988Z,97.71
2023-02-11T19:26:35.714Z,97.52
2023-02-11T19:29:02.772Z,97.83
2023-02-11T19:31:32.354Z,97.20
2023-02-11T19:34:00.375Z,97.46
2023-02-11T19:36:29.430Z,97.47
2023-02-11T19:38:56.145Z,96.99
2023-02-11T19:41:23.333Z,96.91
2023-02-11T19:43:53.788Z,97.20
2023-02-11T19:46:24.374Z,97.12
2023-02-11T19:48:51.279Z,97.21
2023-02-11T19:51:18.311Z,96.96
2023-02-11T19:53:47.853Z,97.42
2023-02-11T19:56:20.417Z,97.59
2023-02-11T19:58:47.368Z,97.46
2023-02-11T20:01:19.714Z,97.55
2023-02-11T20:03:50.249Z,97.75
2023-02-11T20:06:28.488Z,97.82
2023-02-11T20:09:02.714Z,97.37
2023-02-11T20:11:31.264Z,97.43
2023-02-11T20:13:58.590Z,97.66
2023-02-11T20:16:46.039Z,97.68
2023-02-11T20:19:20.584Z,97.31
2023-02-11T20:21:48.832Z,97.17
2023-02-11T20:24:19.090Z,97.30
2023-02-11T20:26:48.486Z,97.21
2023-02-11T20:29:17.469Z,96.99
2023-02-11T20:31:44.849Z,97.32
2023-02-11T20:34:14.448Z,97.61
2023-02-11T20:36:41.265Z,97.50
2023-02-11T20:39:08.985Z,97.37
2023-02-11T20:41:40.060Z,97.81
2023-02-11T20:44:08.711Z,97.52
2023-02-11T20:46:40.183Z,96.89
2023-02-11T20:49:09.097Z,97.25
2023-02-11T20:51:37.001Z,97.15
2023-02-11T20:54:04.113Z,97.06
2023-02-11T20:56:32.555Z,96.73
2023-02-11T20:59:01.629Z,96.53
2023-02-11T21:01:34.572Z,96.36
2023-02-11T21:04:06.760Z,96.51
2023-02-11T21:06:36.431Z,96.46
2023-02-11T21:09:05.515Z,96.22
2023-02-11T21:11:32.376Z,96.21
2023-02-11T21:13:59.605Z,96.12
2023-02-11T21:16:26.411Z,95.72
2023-02-11T21:18:55.459Z,95.64
2023-02-11T21:21:23.321Z,95.76
2023-02-11T21:23:50.331Z,95.41
2023-02-11T21:26:17.637Z,95.44
2023-02-11T21:28:45.101Z,95.23
2023-02-11T21:31:37.158Z,95.41
2023-02-11T21:34:10.627Z,95.40
2023-02-11T21:36:37.325Z,95.33
2023-02-11T21:39:04.357Z,94.89
2023-02-11T21:41:31.470Z,94.95
2023-02-11T21:43:58.274Z,95.17
2023-02-11T21:46:25.034Z,95.37
2023-02-11T21:48:54.046Z,95.71
2023-02-11T21:51:23.758Z,95.26
2023-02-11T21:54:01.411Z,95.87
2023-02-11T21:56:34.351Z,95.08
2023-02-11T21:59:03.713Z,95.00
2023-02-11T22:01:35.400Z,95.14
2023-02-11T22:04:02.158Z,95.54
2023-02-11T22:06:31.391Z,94.90
2023-02-11T22:08:59.424Z,95.54
2023-02-11T22:11:26.071Z,95.42
2023-02-11T22:13:56.534Z,95.33
2023-02-11T22:16:23.916Z,95.64
2023-02-11T22:18:51.666Z,95.48
2023-02-11T22:21:20.959Z,95.21
2023-02-11T22:23:48.803Z,95.38
2023-02-11T22:26:21.280Z,95.10
2023-02-11T22:28:48.856Z,95.48
2023-02-11T22:31:19.056Z,95.15
2023-02-11T22:33:45.798Z,95.33
2023-02-11T22:36:33.926Z,95.74
2023-02-11T22:39:06.563Z,95.88
2023-02-11T22:41:33.709Z,95.77
2023-02-11T22:44:00.632Z,95.96
2023-02-11T22:46:27.533Z,96.09
2023-02-11T22:48:57.144Z,96.02
2023-02-11T22:51:31.334Z,95.35
2023-02-11T22:54:00.606Z,95.67
2023-02-11T22:56:28.226Z,96.02
2023-02-11T22:58:57.071Z,95.94
2023-02-11T23:01:29.865Z,95.88
2023-02-11T23:03:56.636Z,95.80
2023-02-11T23:06:26.230Z,95.78
2023-02-11T23:08:53.181Z,95.60
2023-02-11T23:11:23.670Z,95.45
2023-02-11T23:13:52.175Z,95.05
2023-02-11T23:16:22.309Z,95.17
2023-02-11T23:18:49.873Z,94.91
2023-02-11T23:21:26.104Z,95.49
2023-02-11T23:24:05.328Z,95.11
2023-02-11T23:26:32.050Z,94.96
2023-02-11T23:29:00.035Z,95.17
2023-02-11T23:31:35.488Z,95.45
2023-02-11T23:34:07.596Z,95.15
2023-02-11T23:36:34.760Z,94.95
2023-02-11T23:39:01.836Z,94.56
2023-02-11T23:41:31.665Z,94.90
2023-02-11T23:43:58.460Z,95.42
2023-02-11T23:46:31.426Z,95.42
2023-02-11T23:48:58.058Z,95.27
2023-02-11T23:51:24.796Z,95.13
2023-02-11T23:53:56.183Z,94.69
2023-02-11T23:56:27.426Z,94.84
2023-02-11T23:58:57.317Z,95.26
